Latest Weather Observations for St Helens

IDT60801

Issued at 6:01 pm EDT Sunday 1 February 2015 (issued every 30 minutes, with the page automatically refreshed every 10 minutes)

About weather observations | Map of weather stations | Latest weather observations for TAS | Other Formats
Station Details ID: 092120 Name: ST HELENS AERODROME Lat: -41.34 Lon: 148.28 Height: 48.0 m
Data from the previous 72 hours. | See also: Recent months at St Helens
Date/Time
EDT
Temp
°C
App
Temp
°C
Dew
Point
Rel
Hum
%
Delta-T
°C
Wind Press
QNH
hPa
Press
MSL
hPa
Rain
since 9 am
mm
Dir
 
Spd
km/h
Gust
km/h
Spd
kts
Gust
kts
01/06:00pm 14.2 11.1 10.4 78 2.0 S 17 32 9 17 1014.3 1014.1 1.8
01/05:30pm 13.5 11.0 10.9 84 1.4 SSE 15 28 8 15 1014.1 - 1.8
01/05:00pm 14.4 10.8 10.0 75 2.3 SSE 19 35 10 19 1013.9 - 0.4
01/04:30pm 14.1 10.2 10.7 80 1.8 S 22 39 12 21 1013.7 - 0.2
01/04:00pm 15.7 11.5 9.8 68 3.1 S 22 50 12 27 1013.3 - 0.0
01/03:30pm 16.9 12.4 10.1 64 3.6 SSE 24 43 13 23 1013.0 - 0.0
01/03:00pm 17.0 13.2 9.9 63 3.7 SSE 20 37 11 20 1012.8 1012.6 0.0
01/02:30pm 17.3 12.8 10.0 62 3.9 SSE 24 43 13 23 1012.5 - 0.0
01/02:00pm 18.9 14.7 9.7 55 4.9 SSE 22 39 12 21 1012.5 - 0.0
01/01:30pm 17.6 13.6 9.2 58 4.4 SSE 20 33 11 18 1012.7 - 0.0
01/01:00pm 18.4 15.7 8.9 54 5.0 S 13 24 7 13 1012.8 - 0.0
01/12:30pm 17.5 14.4 8.9 57 4.5 S 15 32 8 17 1013.0 - 0.0
01/12:00pm 17.7 14.3 9.1 57 4.5 S 17 32 9 17 1013.0 1012.8 0.0
01/11:30am 18.4 15.0 9.2 55 4.8 S 17 28 9 15 1012.9 - 0.0
01/11:00am 16.4 13.0 9.3 63 3.7 S 17 33 9 18 1012.8 - 0.0
01/10:30am 16.2 12.5 7.9 58 4.2 S 17 33 9 18 1012.7 - 0.0
01/10:00am 16.0 12.4 8.5 61 3.8 S 17 32 9 17 1012.6 - 0.0
01/09:30am 15.8 12.7 9.0 64 3.5 SSW 15 28 8 15 1012.5 - 0.0
01/09:00am 15.4 12.4 9.1 66 3.2 S 15 26 8 14 1012.4 1012.2 0.8
01/08:30am 15.9 12.4 8.6 62 3.7 S 17 28 9 15 1011.9 - 0.8
01/08:00am 15.0 11.8 8.5 65 3.3 SSW 15 20 8 11 1011.6 - 0.8
01/07:30am 14.8 12.4 8.7 67 3.1 S 11 20 6 11 1011.3 - 0.8
01/07:00am 14.1 11.2 8.3 68 2.9 S 13 20 7 11 1011.0 - 0.8
01/06:30am 13.5 11.0 8.4 71 2.6 SSW 11 20 6 11 1010.6 - 0.8
01/06:00am 13.0 11.1 9.1 77 2.0 SSW 9 13 5 7 1010.4 1010.2 0.8
01/05:30am 12.9 11.7 9.4 79 1.8 SW 6 11 3 6 1010.2 - 0.8
01/05:00am 12.8 11.4 9.6 81 1.6 SSW 7 11 4 6 1010.0 - 0.8
01/04:30am 12.6 11.8 9.8 83 1.4 SW 4 9 2 5 1009.9 - 0.8
01/04:00am 12.7 11.3 9.7 82 1.5 SSW 7 9 4 5 1010.0 - 0.8
01/03:30am 12.7 11.0 9.7 82 1.5 S 9 13 5 7 1010.0 - 0.8
01/03:00am 13.7 11.7 8.7 72 2.5 S 9 15 5 8 1010.2 1010.0 0.6
01/02:30am 14.0 11.9 8.2 68 2.9 S 9 13 5 7 1010.1 - 0.6
01/02:00am 14.1 11.6 8.3 68 2.9 SSW 11 17 6 9 1009.9 - 0.6
01/01:30am 14.0 11.9 8.2 68 2.9 SSW 9 15 5 8 1010.1 - 0.6
01/01:00am 14.1 12.4 8.3 68 2.9 S 7 15 4 8 1010.2 - 0.6
01/12:30am 14.3 12.4 8.9 70 2.7 SSW 9 15 5 8 1010.2 - 0.6
01/12:00am 14.4 12.6 9.4 72 2.6 S 9 17 5 9 1010.3 1010.1 0.6
 
Date/Time
EDT
Temp
°C
App
Temp
°C
Dew
Point
Rel
Hum
%
Delta-T
°C
Wind Press
QNH
hPa
Press
MSL
hPa
Rain
since 9 am
mm
Dir
 
Spd
km/h
Gust
km/h
Spd
kts
Gust
kts
31/11:30pm 14.2 13.3 10.8 80 1.8 S 6 9 3 5 1010.3 - 0.6
31/11:00pm 14.5 13.5 10.9 79 1.9 SSW 7 13 4 7 1010.3 - 0.6
31/10:30pm 14.5 13.2 11.3 81 1.7 S 9 13 5 7 1010.3 - 0.6
31/10:00pm 14.6 13.3 11.4 81 1.7 SSW 9 17 5 9 1010.1 - 0.6
31/09:30pm 14.6 13.0 11.6 82 1.6 S 11 20 6 11 1010.0 - 0.6
31/09:00pm 15.2 12.8 11.4 78 2.0 S 15 24 8 13 1009.9 1009.7 0.6
31/08:30pm 15.2 13.4 12.0 81 1.7 S 13 24 7 13 1009.5 - 0.6
31/08:00pm 14.9 13.3 12.8 87 1.2 S 13 22 7 12 1009.2 - 0.6
31/07:30pm 14.8 12.4 12.7 87 1.2 S 17 30 9 16 1009.0 - 0.6
31/07:00pm 15.3 12.9 12.6 84 1.5 S 17 35 9 19 1008.6 - 0.6
31/06:30pm 15.5 13.2 13.0 85 1.4 S 17 32 9 17 1008.1 - 0.6
31/06:00pm 15.5 13.7 13.2 86 1.3 S 15 30 8 16 1008.1 1008.0 0.6
31/05:30pm 15.0 13.1 12.9 87 1.2 S 15 26 8 14 1008.0 - 0.4
31/05:00pm 15.8 13.9 13.1 84 1.5 S 15 22 8 12 1008.2 - 0.2
31/04:30pm 17.5 16.5 12.4 72 2.8 SSW 9 15 5 8 1008.0 - 0.0
31/04:00pm 17.8 14.5 10.9 64 3.7 S 19 30 10 16 1007.9 - 0.0
31/03:30pm 18.4 15.4 10.7 61 4.2 S 17 35 9 19 1007.7 - 0.0
31/03:00pm 18.2 14.3 10.8 62 4.0 S 22 41 12 22 1007.5 1007.4 0.0
31/02:30pm 17.3 13.5 11.3 68 3.3 S 22 43 12 23 1007.6 - 0.0
31/02:01pm 18.5 13.3 10.1 58 4.5 S 28 48 15 26 1007.3 - 0.0
31/02:00pm 18.5 13.6 10.1 58 4.5 S 26 48 14 26 1007.3 - 0.0
31/01:53pm 19.2 14.0 10.2 56 4.8 S 28 48 15 26 1007.3 - 0.0
31/01:30pm 18.7 14.9 11.0 61 4.2 S 22 39 12 21 1007.4 - 0.0
31/01:00pm 19.0 15.6 11.3 61 4.2 S 20 35 11 19 1007.3 - 0.0
31/12:30pm 18.2 14.8 10.6 61 4.1 S 19 33 10 18 1007.5 - 0.0
31/12:00pm 18.2 14.7 10.8 62 4.0 SSW 20 41 11 22 1007.6 1007.5 0.0
31/11:45am 18.1 13.0 10.5 61 4.1 S 28 48 15 26 1007.7 - 0.0
31/11:30am 18.7 15.0 10.3 58 4.5 S 20 39 11 21 1007.5 - 0.0
31/11:00am 18.1 13.3 10.2 60 4.2 S 26 46 14 25 1007.6 - 0.0
31/10:32am 17.9 12.6 10.0 60 4.2 S 28 46 15 25 1007.7 - 0.0
31/10:30am 18.1 13.4 10.5 61 4.1 S 26 44 14 24 1007.8 - 0.0
31/10:00am 18.2 14.7 10.8 62 4.0 S 20 39 11 21 1007.7 - 0.0
31/09:30am 17.0 13.9 10.4 65 3.5 S 17 33 9 18 1007.8 - 0.0
31/09:00am 16.6 12.5 10.2 66 3.4 S 22 37 12 20 1007.7 1007.6 0.0
31/08:30am 16.5 13.0 10.1 66 3.4 S 19 33 10 18 1007.7 - 0.0
31/08:00am 16.1 12.5 10.0 67 3.2 S 19 32 10 17 1007.6 - 0.0
31/07:30am 16.0 12.4 9.9 67 3.2 S 19 28 10 15 1007.4 - 0.0
31/07:00am 15.7 11.8 9.6 67 3.2 S 20 37 11 20 1007.5 - 0.0
31/06:30am 15.7 11.8 9.6 67 3.2 S 20 39 11 21 1007.4 - 0.0
31/06:00am 15.6 12.3 9.5 67 3.2 S 17 41 9 22 1007.3 1007.2 0.0
31/05:30am 15.5 12.5 9.4 67 3.2 S 15 26 8 14 1007.0 - 0.0
31/05:00am 15.0 12.3 9.1 68 3.0 SSW 13 22 7 12 1006.8 - 0.0
31/04:30am 15.0 12.3 8.9 67 3.1 SSW 13 20 7 11 1007.0 - 0.0
31/04:00am 15.2 11.4 9.1 67 3.1 S 19 32 10 17 1007.2 - 0.0
31/03:30am 15.1 11.3 9.0 67 3.1 S 19 37 10 20 1007.4 - 0.0
31/03:00am 15.0 11.2 8.9 67 3.1 S 19 30 10 16 1007.7 1007.6 0.0
31/02:30am 15.0 11.2 8.9 67 3.1 S 19 33 10 18 1007.8 - 0.0
31/02:00am 15.1 11.0 8.8 66 3.2 S 20 41 11 22 1008.3 - 0.0
31/01:30am 14.9 10.8 8.8 67 3.1 S 20 35 11 19 1008.8 - 0.0
31/01:00am 14.9 11.7 8.6 66 3.2 S 15 24 8 13 1009.2 - 0.0
31/12:30am 15.0 10.9 8.5 65 3.3 S 20 33 11 18 1009.3 - 0.0
31/12:00am 14.8 11.2 8.5 66 3.2 S 17 30 9 16 1009.6 1009.4 0.0
 
Date/Time
EDT
Temp
°C
App
Temp
°C
Dew
Point
Rel
Hum
%
Delta-T
°C
Wind Press
QNH
hPa
Press
MSL
hPa
Rain
since 9 am
mm
Dir
 
Spd
km/h
Gust
km/h
Spd
kts
Gust
kts
30/11:30pm 14.7 10.1 8.2 65 3.3 S 22 33 12 18 1010.0 - 0.0
30/11:00pm 14.5 10.8 8.0 65 3.2 S 17 30 9 16 1010.2 - 0.0
30/10:30pm 14.7 10.6 8.0 64 3.4 S 19 33 10 18 1010.6 - 0.0
30/10:00pm 14.7 10.4 8.0 64 3.4 S 20 32 11 17 1010.8 - 0.0
30/09:30pm 14.6 10.6 8.1 65 3.3 S 19 37 10 20 1011.0 - 0.0
30/09:00pm 14.8 10.6 8.3 65 3.3 S 20 39 11 21 1011.0 1010.8 0.0
30/08:30pm 14.9 11.7 8.4 65 3.3 S 15 28 8 15 1011.2 - 0.0
30/08:00pm 15.1 11.9 8.3 64 3.4 S 15 32 8 17 1011.1 - 0.0
30/07:30pm 15.5 10.9 8.3 62 3.6 SSW 22 43 12 23 1011.1 - 0.0
30/07:00pm 15.5 10.9 8.0 61 3.8 S 22 39 12 21 1011.2 - 0.0
30/06:30pm 15.6 11.6 8.1 61 3.8 S 19 41 10 22 1011.4 - 0.0
30/06:00pm 15.4 10.9 8.4 63 3.5 S 22 41 12 22 1011.6 1011.4 0.0
30/05:30pm 15.7 10.5 8.7 63 3.6 S 26 50 14 27 1011.8 - 0.0
30/05:15pm 15.5 9.9 8.7 64 3.5 S 28 46 15 25 1011.9 - 0.0
30/05:00pm 15.8 10.6 8.8 63 3.6 S 26 44 14 24 1012.0 - 0.0
30/04:36pm 15.2 9.7 9.1 67 3.1 S 28 48 15 26 1012.2 - 0.0
30/04:30pm 15.6 11.3 9.5 67 3.2 S 22 43 12 23 1012.3 - 0.0
30/04:18pm 15.7 10.3 9.6 67 3.2 S 28 50 15 27 1012.3 - 0.0
30/04:00pm 15.9 10.9 9.6 66 3.3 S 26 50 14 27 1012.3 - 0.0
30/03:30pm 16.3 10.0 9.0 62 3.8 S 32 61 17 33 1012.3 - 0.0
30/03:00pm 16.7 10.8 9.1 61 3.9 S 30 56 16 30 1012.6 1012.4 0.0
30/02:30pm 16.2 9.9 8.9 62 3.8 S 32 52 17 28 1012.9 - 0.0
30/02:04pm 15.8 10.3 9.0 64 3.5 S 28 50 15 27 1013.1 - 0.0
30/02:00pm 15.9 10.6 8.6 62 3.7 S 26 43 14 23 1013.2 - 0.0
30/01:30pm 15.7 9.6 8.4 62 3.7 S 30 52 16 28 1013.3 - 0.0
30/01:00pm 16.0 10.5 9.2 64 3.5 S 28 48 15 26 1013.6 - 0.0
30/12:30pm 15.3 8.1 7.6 60 3.8 S 35 59 19 32 1013.8 - 0.0
30/12:00pm 14.9 9.2 8.4 65 3.3 S 28 54 15 29 1014.1 1013.9 0.0
30/11:36am 14.7 8.9 8.0 64 3.4 S 28 48 15 26 1014.4 - 0.0
30/11:30am 15.0 9.7 8.3 64 3.4 S 26 48 14 26 1014.6 - 0.0
30/11:02am 14.6 8.8 7.9 64 3.3 S 28 54 15 29 1014.6 - 0.0
30/11:00am 14.7 9.3 8.0 64 3.4 S 26 54 14 29 1014.6 - 0.0
30/10:30am 15.4 9.2 7.7 60 3.8 S 30 50 16 27 1014.6 - 0.0
30/10:09am 14.6 8.8 8.1 65 3.3 S 28 56 15 30 1014.9 - 0.0
30/10:00am 14.5 9.6 8.5 67 3.0 S 24 48 13 26 1015.0 - 0.0
30/09:36am 14.1 8.5 8.7 70 2.7 S 28 52 15 28 1015.2 - 0.0
30/09:30am 14.3 9.4 8.3 67 3.0 S 24 41 13 22 1015.2 - 0.0
30/09:00am 14.4 9.4 8.1 66 3.1 S 24 46 13 25 1015.1 1015.0 2.0
30/08:30am 13.5 7.3 7.9 69 2.8 S 30 50 16 27 1015.4 - 2.0
30/08:27am 13.6 7.8 7.8 68 2.9 S 28 46 15 25 1015.4 - 2.0
30/08:00am 13.6 8.3 6.9 64 3.2 S 24 52 13 28 1015.4 - 2.0
30/07:30am 13.5 8.2 6.8 64 3.2 S 24 44 13 24 1015.3 - 2.0
30/07:02am 13.3 7.3 7.1 66 3.0 S 28 56 15 30 1015.3 - 2.0
30/07:00am 13.2 7.6 7.0 66 3.0 S 26 56 14 30 1015.3 - 2.0
30/06:30am 13.1 7.8 6.9 66 3.0 S 24 44 13 24 1015.4 - 2.0
30/06:25am 13.1 7.0 6.7 65 3.1 S 28 48 15 26 1015.4 - 2.0
30/06:00am 13.1 7.4 6.9 66 3.0 S 26 41 14 22 1015.4 1015.3 2.0
30/05:30am 13.2 7.5 6.8 65 3.1 S 26 43 14 23 1015.5 - 2.0
30/05:00am 13.1 8.6 6.9 66 3.0 S 20 39 11 21 1015.6 - 2.0
30/04:30am 12.8 7.3 7.7 71 2.5 S 26 48 14 26 1015.7 - 2.0
30/04:02am 12.0 6.4 8.8 81 1.6 S 28 54 15 29 1016.0 - 2.0
30/04:00am 12.0 6.8 8.8 81 1.6 S 26 54 14 29 1016.1 - 2.0
30/03:30am 13.2 7.3 7.6 69 2.7 S 28 48 15 26 1016.4 - 2.0
30/03:00am 12.6 7.8 7.5 71 2.5 S 22 39 12 21 1016.5 1016.4 2.0
30/02:30am 12.7 7.5 7.4 70 2.6 S 24 39 13 21 1016.9 - 2.0
30/02:00am 12.5 8.1 7.2 70 2.6 S 20 43 11 23 1017.2 - 2.0
30/01:30am 12.7 7.8 6.7 67 2.9 S 22 44 12 24 1017.6 - 2.0
30/01:00am 12.7 8.1 6.3 65 3.0 S 20 33 11 18 1018.0 - 2.0
30/12:30am 12.8 7.7 6.2 64 3.1 S 22 39 12 21 1018.2 - 2.0
30/12:00am 12.7 8.3 6.5 66 3.0 SSW 19 32 10 17 1018.4 1018.3 2.0
 
Date/Time
EDT
Temp
°C
App
Temp
°C
Dew
Point
Rel
Hum
%
Delta-T
°C
Wind Press
QNH
hPa
Press
MSL
hPa
Rain
since 9 am
mm
Dir
 
Spd
km/h
Gust
km/h
Spd
kts
Gust
kts
29/11:30pm 12.8 7.7 7.5 70 2.6 S 24 44 13 24 1018.9 - 2.0
29/11:00pm 13.1 8.5 6.5 64 3.2 S 20 43 11 23 1019.5 - 2.0
29/10:30pm 13.1 8.0 5.8 61 3.4 S 22 39 12 21 1019.7 - 2.0
29/10:00pm 13.0 8.3 5.9 62 3.4 S 20 33 11 18 1019.7 - 2.0
29/09:30pm 13.1 8.0 6.2 63 3.3 S 22 39 12 21 1019.8 - 2.0
29/09:00pm 13.3 7.9 6.2 62 3.4 S 24 41 13 22 1019.8 1019.7 2.0
29/08:30pm 13.6 8.2 6.5 62 3.4 S 24 43 13 23 1019.9 - 2.0
29/08:00pm 14.1 7.8 7.4 64 3.3 S 30 56 16 30 1020.0 - 2.0
29/07:30pm 14.4 8.4 7.2 62 3.5 S 28 46 15 25 1019.8 - 2.0
29/07:00pm 14.0 8.2 7.8 66 3.1 S 28 52 15 28 1019.9 - 2.0
29/06:30pm 14.7 8.2 8.0 64 3.4 S 32 52 17 28 1019.8 - 2.0
29/06:09pm 15.1 9.6 9.0 67 3.1 S 28 48 15 26 1019.9 - 2.0

Other Formats:

Comma delimited format used in spreadsheet applications
http://www.bom.gov.au/fwo/IDT60801/IDT60801.95981.axf

JavaScript Object Notation format (JSON) in row-major order
http://www.bom.gov.au/fwo/IDT60801/IDT60801.95981.json